Accueil
METAR-TAF:

METAR-TAF

Aéroports :

Norwich, Angleterre

Aéroport international de Norwich

latitude: 52-38N, longitude: 001-18E, altitude: 14 m

Observation

Le bulletin a été fait il y a 21 minutes, à 15:20 UTC
Vent 10 kt de sud-est
Température 18°C
Humidité 56%
Pression 1019 hPa
Visibilité 10 km ou plus
pas de nuages en-dessous de 1500 mètres et pas de cumulonimbus.

METAR: EGSH 211520Z 13010KT CAVOK 18/09 Q1019 NOSIG

Heure: 16:41 (15:41 UTC)

Prévision

Le bulletin a été fait il y a 1 heure et 40 minutes, à 14:01 UTC
Prévision valable du 21 à 15 UTC au 21 à 24 UTC
Vent 10 kt de est/sud-est
Visibilité 10 km ou plus
Quelques nuages à une hauteur de 3500 ft
Probabilité 30% :
Temporairement
du 21 à 18 UTC au 21 à 24 UTC
Visibilité: 5000 m
fortes averses de pluie, orage, grêle

TAF: EGSH 211401Z 2115/2124 12010KT 9999 FEW035 PROB30 TEMPO 2118/2124 5000 +SHRA TSGR

Observations et prévisions météorologiques de plus de 4000 aéroports (messages METAR et TAF).

Les stations disponibles sont représentées par des disques jaunes et rouges sur la carte.

Passer la souris dessus pour voir le nom de la station.

Cliquer dessus pour voir les observations et prévisions météorologiques.

Pour changer de carte: cliquez sur les boutons verts avec une croix noire pour zoomer, sur le bouton vert avec un tiret pour effectuer un zoom arrière, ou sur les flèches vertes pour les cartes adjacentes.


METAR-TAF: